Terminal Aerodrome Forecast
Issued by NWS Duluth, MN

Home | Current Version | Previous Version | Text Only | Print | Product List | Glossary On
Versions: 1 2 3 4 5 6 7 8 9 10 11 12 13 14 15 16 17 18 19 20 21 22 23 24 25
000
FTUS43 KDLH 120600 AAB
TAFDLH
TAF AMD
KDLH 120621Z 1206/1306 25006KT 1/4SM FG VV002
      TEMPO 1208/1211 3/4SM BR BKN002
     FM121100 30005KT 2SM BR BKN002
     FM121300 32005KT P6SM SCT005
     FM121500 30007KT P6SM SCT040
     FM122300 26009KT P6SM SCT150=

USA.gov is the U.S. government's official web portal to all federal, state and local government web resources and services.